sensor_id;sensor_type;location;lat;lon;timestamp;temperature;humidity
19829;DHT22;10075;50.924;4.396;2023-06-22T00:02:17;22.30;99.90
19829;DHT22;10075;50.924;4.396;2023-06-22T00:04:44;22.10;99.90
19829;DHT22;10075;50.924;4.396;2023-06-22T00:07:12;22.10;99.90
19829;DHT22;10075;50.924;4.396;2023-06-22T00:09:39;21.90;99.90
19829;DHT22;10075;50.924;4.396;2023-06-22T00:12:07;21.90;99.90
19829;DHT22;10075;50.924;4.396;2023-06-22T00:14:34;22.10;99.90
19829;DHT22;10075;50.924;4.396;2023-06-22T00:17:01;22.00;99.90
19829;DHT22;10075;50.924;4.396;2023-06-22T00:19:28;22.10;99.90
19829;DHT22;10075;50.924;4.396;2023-06-22T00:21:55;22.10;99.90
19829;DHT22;10075;50.924;4.396;2023-06-22T00:24:27;22.20;99.90
19829;DHT22;10075;50.924;4.396;2023-06-22T00:26:54;22.30;99.90
19829;DHT22;10075;50.924;4.396;2023-06-22T00:29:21;22.20;99.90
19829;DHT22;10075;50.924;4.396;2023-06-22T00:31:48;22.10;99.90
19829;DHT22;10075;50.924;4.396;2023-06-22T00:34:15;21.90;99.90
19829;DHT22;10075;50.924;4.396;2023-06-22T00:36:42;21.90;99.90
19829;DHT22;10075;50.924;4.396;2023-06-22T00:39:09;22.00;99.90
19829;DHT22;10075;50.924;4.396;2023-06-22T00:41:37;21.90;99.90
19829;DHT22;10075;50.924;4.396;2023-06-22T00:44:05;22.00;99.90
19829;DHT22;10075;50.924;4.396;2023-06-22T00:46:32;22.10;99.90
19829;DHT22;10075;50.924;4.396;2023-06-22T00:48:59;22.00;99.90
19829;DHT22;10075;50.924;4.396;2023-06-22T00:51:26;21.90;99.90
19829;DHT22;10075;50.924;4.396;2023-06-22T00:53:54;21.90;99.90
19829;DHT22;10075;50.924;4.396;2023-06-22T00:56:22;21.70;99.90
19829;DHT22;10075;50.924;4.396;2023-06-22T00:58:52;21.70;99.90
19829;DHT22;10075;50.924;4.396;2023-06-22T01:01:20;21.60;99.90
19829;DHT22;10075;50.924;4.396;2023-06-22T01:03:49;21.60;99.90
19829;DHT22;10075;50.924;4.396;2023-06-22T01:06:21;21.60;99.90
19829;DHT22;10075;50.924;4.396;2023-06-22T01:09:00;21.80;99.90
19829;DHT22;10075;50.924;4.396;2023-06-22T01:11:31;21.80;99.90
19829;DHT22;10075;50.924;4.396;2023-06-22T01:14:06;21.70;99.90
19829;DHT22;10075;50.924;4.396;2023-06-22T01:16:35;21.70;99.90
19829;DHT22;10075;50.924;4.396;2023-06-22T01:19:13;21.60;99.90
19829;DHT22;10075;50.924;4.396;2023-06-22T01:21:45;21.50;99.90
19829;DHT22;10075;50.924;4.396;2023-06-22T01:24:20;21.50;99.90
19829;DHT22;10075;50.924;4.396;2023-06-22T01:26:57;21.60;99.90
19829;DHT22;10075;50.924;4.396;2023-06-22T01:29:29;21.60;99.90
19829;DHT22;10075;50.924;4.396;2023-06-22T01:31:57;21.60;99.90
19829;DHT22;10075;50.924;4.396;2023-06-22T01:34:26;21.60;99.90
19829;DHT22;10075;50.924;4.396;2023-06-22T01:36:54;21.50;99.90
19829;DHT22;10075;50.924;4.396;2023-06-22T01:39:21;21.50;99.90
19829;DHT22;10075;50.924;4.396;2023-06-22T01:41:49;21.50;99.90
19829;DHT22;10075;50.924;4.396;2023-06-22T01:44:17;21.50;99.90
19829;DHT22;10075;50.924;4.396;2023-06-22T01:46:46;21.50;99.90
19829;DHT22;10075;50.924;4.396;2023-06-22T01:49:13;21.70;99.90
19829;DHT22;10075;50.924;4.396;2023-06-22T01:51:40;21.60;99.90
19829;DHT22;10075;50.924;4.396;2023-06-22T01:54:07;21.50;99.90
19829;DHT22;10075;50.924;4.396;2023-06-22T01:56:35;21.50;99.90
19829;DHT22;10075;50.924;4.396;2023-06-22T01:59:07;21.40;99.90
19829;DHT22;10075;50.924;4.396;2023-06-22T02:01:42;21.30;99.90
19829;DHT22;10075;50.924;4.396;2023-06-22T02:04:13;21.30;99.90
19829;DHT22;10075;50.924;4.396;2023-06-22T02:06:43;21.30;99.90
19829;DHT22;10075;50.924;4.396;2023-06-22T02:09:15;21.20;99.90
19829;DHT22;10075;50.924;4.396;2023-06-22T02:11:45;21.10;99.90
19829;DHT22;10075;50.924;4.396;2023-06-22T02:14:13;21.10;99.90
19829;DHT22;10075;50.924;4.396;2023-06-22T02:16:41;21.00;99.90
19829;DHT22;10075;50.924;4.396;2023-06-22T02:19:10;20.90;99.90
19829;DHT22;10075;50.924;4.396;2023-06-22T02:21:37;20.80;99.90
19829;DHT22;10075;50.924;4.396;2023-06-22T02:24:04;20.70;99.90
19829;DHT22;10075;50.924;4.396;2023-06-22T02:26:32;20.70;99.90
19829;DHT22;10075;50.924;4.396;2023-06-22T02:28:59;20.70;99.90
19829;DHT22;10075;50.924;4.396;2023-06-22T02:31:26;20.70;99.90
19829;DHT22;10075;50.924;4.396;2023-06-22T02:33:56;20.70;99.90
19829;DHT22;10075;50.924;4.396;2023-06-22T02:36:25;20.70;99.90
19829;DHT22;10075;50.924;4.396;2023-06-22T02:38:53;20.70;99.90
19829;DHT22;10075;50.924;4.396;2023-06-22T02:41:23;20.70;99.90
19829;DHT22;10075;50.924;4.396;2023-06-22T02:43:50;20.60;99.90
19829;DHT22;10075;50.924;4.396;2023-06-22T02:46:17;20.60;99.90
19829;DHT22;10075;50.924;4.396;2023-06-22T02:48:44;20.50;99.90
19829;DHT22;10075;50.924;4.396;2023-06-22T02:51:10;20.50;99.90
19829;DHT22;10075;50.924;4.396;2023-06-22T02:53:39;20.40;99.90
19829;DHT22;10075;50.924;4.396;2023-06-22T02:56:10;20.40;99.90
19829;DHT22;10075;50.924;4.396;2023-06-22T02:58:38;20.30;99.90
19829;DHT22;10075;50.924;4.396;2023-06-22T03:01:07;20.20;99.90
19829;DHT22;10075;50.924;4.396;2023-06-22T03:03:35;20.30;99.90
19829;DHT22;10075;50.924;4.396;2023-06-22T03:06:02;20.30;99.90
19829;DHT22;10075;50.924;4.396;2023-06-22T03:08:29;20.40;99.90
19829;DHT22;10075;50.924;4.396;2023-06-22T03:10:57;20.50;99.90
19829;DHT22;10075;50.924;4.396;2023-06-22T03:13:26;20.60;99.90
19829;DHT22;10075;50.924;4.396;2023-06-22T03:15:54;20.50;99.90
19829;DHT22;10075;50.924;4.396;2023-06-22T03:18:21;20.60;99.90
19829;DHT22;10075;50.924;4.396;2023-06-22T03:20:48;20.60;99.90
19829;DHT22;10075;50.924;4.396;2023-06-22T03:23:15;20.60;99.90
19829;DHT22;10075;50.924;4.396;2023-06-22T03:25:42;20.40;99.90
19829;DHT22;10075;50.924;4.396;2023-06-22T03:28:11;20.40;99.90
19829;DHT22;10075;50.924;4.396;2023-06-22T03:30:38;20.30;99.90
19829;DHT22;10075;50.924;4.396;2023-06-22T03:33:05;20.30;99.90
19829;DHT22;10075;50.924;4.396;2023-06-22T03:35:32;20.30;99.90
19829;DHT22;10075;50.924;4.396;2023-06-22T03:37:59;20.40;99.90
19829;DHT22;10075;50.924;4.396;2023-06-22T03:40:26;20.30;99.90
19829;DHT22;10075;50.924;4.396;2023-06-22T03:42:53;20.20;99.90
19829;DHT22;10075;50.924;4.396;2023-06-22T03:45:22;20.10;99.90
19829;DHT22;10075;50.924;4.396;2023-06-22T03:47:48;20.20;99.90
19829;DHT22;10075;50.924;4.396;2023-06-22T03:50:16;20.20;99.90
19829;DHT22;10075;50.924;4.396;2023-06-22T03:52:45;20.20;99.90
19829;DHT22;10075;50.924;4.396;2023-06-22T03:55:12;20.10;99.90
19829;DHT22;10075;50.924;4.396;2023-06-22T03:57:39;20.00;99.90
19829;DHT22;10075;50.924;4.396;2023-06-22T04:00:07;20.20;99.90
19829;DHT22;10075;50.924;4.396;2023-06-22T04:02:37;20.20;99.90
19829;DHT22;10075;50.924;4.396;2023-06-22T04:05:04;20.20;99.90
19829;DHT22;10075;50.924;4.396;2023-06-22T04:07:31;20.20;99.90
19829;DHT22;10075;50.924;4.396;2023-06-22T04:09:58;20.20;99.90
19829;DHT22;10075;50.924;4.396;2023-06-22T04:12:25;20.30;99.90
19829;DHT22;10075;50.924;4.396;2023-06-22T04:14:52;20.30;99.90
19829;DHT22;10075;50.924;4.396;2023-06-22T04:17:19;20.40;99.90
19829;DHT22;10075;50.924;4.396;2023-06-22T04:19:47;20.40;99.90
19829;DHT22;10075;50.924;4.396;2023-06-22T04:22:14;20.40;99.90
19829;DHT22;10075;50.924;4.396;2023-06-22T04:24:41;20.60;99.90
19829;DHT22;10075;50.924;4.396;2023-06-22T04:27:08;20.70;99.90
19829;DHT22;10075;50.924;4.396;2023-06-22T04:29:35;20.80;99.90
19829;DHT22;10075;50.924;4.396;2023-06-22T04:32:04;20.80;99.90
19829;DHT22;10075;50.924;4.396;2023-06-22T04:34:31;20.90;99.90
19829;DHT22;10075;50.924;4.396;2023-06-22T04:37:00;21.00;99.90
19829;DHT22;10075;50.924;4.396;2023-06-22T04:39:27;21.00;99.90
19829;DHT22;10075;50.924;4.396;2023-06-22T04:41:54;21.10;99.90
19829;DHT22;10075;50.924;4.396;2023-06-22T04:44:26;21.10;99.90
19829;DHT22;10075;50.924;4.396;2023-06-22T04:46:54;21.10;99.90
19829;DHT22;10075;50.924;4.396;2023-06-22T04:49:26;21.20;99.90
19829;DHT22;10075;50.924;4.396;2023-06-22T04:52:00;21.10;99.90
19829;DHT22;10075;50.924;4.396;2023-06-22T04:54:27;21.30;99.90
19829;DHT22;10075;50.924;4.396;2023-06-22T04:56:54;21.30;99.90
19829;DHT22;10075;50.924;4.396;2023-06-22T04:59:23;21.60;99.90
19829;DHT22;10075;50.924;4.396;2023-06-22T05:01:53;21.50;99.90
19829;DHT22;10075;50.924;4.396;2023-06-22T05:04:21;21.60;99.90
19829;DHT22;10075;50.924;4.396;2023-06-22T05:06:48;21.70;99.90
19829;DHT22;10075;50.924;4.396;2023-06-22T05:09:17;21.70;99.90
19829;DHT22;10075;50.924;4.396;2023-06-22T05:11:44;21.70;99.90
19829;DHT22;10075;50.924;4.396;2023-06-22T05:14:11;21.80;99.90
19829;DHT22;10075;50.924;4.396;2023-06-22T05:16:38;22.00;99.90
19829;DHT22;10075;50.924;4.396;2023-06-22T05:19:06;22.10;99.90
19829;DHT22;10075;50.924;4.396;2023-06-22T05:21:33;22.30;99.90
19829;DHT22;10075;50.924;4.396;2023-06-22T05:24:00;22.50;99.90
19829;DHT22;10075;50.924;4.396;2023-06-22T05:26:30;22.60;99.90
19829;DHT22;10075;50.924;4.396;2023-06-22T05:28:58;22.70;99.90
19829;DHT22;10075;50.924;4.396;2023-06-22T05:31:26;22.80;99.90
19829;DHT22;10075;50.924;4.396;2023-06-22T05:33:54;22.90;99.90
19829;DHT22;10075;50.924;4.396;2023-06-22T05:36:22;22.90;99.90
19829;DHT22;10075;50.924;4.396;2023-06-22T05:38:51;22.90;99.90
19829;DHT22;10075;50.924;4.396;2023-06-22T05:41:18;22.80;99.90
19829;DHT22;10075;50.924;4.396;2023-06-22T05:43:46;22.70;99.90
19829;DHT22;10075;50.924;4.396;2023-06-22T05:46:13;22.60;99.90
19829;DHT22;10075;50.924;4.396;2023-06-22T05:48:40;22.40;99.90
19829;DHT22;10075;50.924;4.396;2023-06-22T05:51:08;22.30;99.90
19829;DHT22;10075;50.924;4.396;2023-06-22T05:53:35;22.10;99.90
19829;DHT22;10075;50.924;4.396;2023-06-22T05:56:02;22.10;99.90
19829;DHT22;10075;50.924;4.396;2023-06-22T05:58:29;22.00;99.90
19829;DHT22;10075;50.924;4.396;2023-06-22T06:00:58;21.90;99.90
19829;DHT22;10075;50.924;4.396;2023-06-22T06:03:26;21.90;99.90
19829;DHT22;10075;50.924;4.396;2023-06-22T06:05:54;21.90;99.90
19829;DHT22;10075;50.924;4.396;2023-06-22T06:08:21;21.90;99.90
19829;DHT22;10075;50.924;4.396;2023-06-22T06:10:48;21.80;99.90
19829;DHT22;10075;50.924;4.396;2023-06-22T06:13:15;21.80;99.90
19829;DHT22;10075;50.924;4.396;2023-06-22T06:15:42;21.70;99.90
19829;DHT22;10075;50.924;4.396;2023-06-22T06:18:10;21.60;99.90
19829;DHT22;10075;50.924;4.396;2023-06-22T06:20:38;21.40;99.90
19829;DHT22;10075;50.924;4.396;2023-06-22T06:23:05;21.50;99.90
19829;DHT22;10075;50.924;4.396;2023-06-22T06:25:32;21.60;99.90
19829;DHT22;10075;50.924;4.396;2023-06-22T06:27:58;21.60;99.90
19829;DHT22;10075;50.924;4.396;2023-06-22T06:30:26;21.70;99.90
19829;DHT22;10075;50.924;4.396;2023-06-22T06:32:53;21.70;99.90
19829;DHT22;10075;50.924;4.396;2023-06-22T06:35:21;21.70;99.90
19829;DHT22;10075;50.924;4.396;2023-06-22T06:37:50;21.60;99.90
19829;DHT22;10075;50.924;4.396;2023-06-22T06:40:18;21.60;99.90
19829;DHT22;10075;50.924;4.396;2023-06-22T06:42:47;21.60;99.90
19829;DHT22;10075;50.924;4.396;2023-06-22T06:45:17;21.70;99.90
19829;DHT22;10075;50.924;4.396;2023-06-22T06:47:45;21.80;99.90
19829;DHT22;10075;50.924;4.396;2023-06-22T06:50:12;22.00;99.90
19829;DHT22;10075;50.924;4.396;2023-06-22T06:52:40;22.20;99.90
19829;DHT22;10075;50.924;4.396;2023-06-22T06:55:08;22.30;99.90
19829;DHT22;10075;50.924;4.396;2023-06-22T06:57:37;22.40;99.90
19829;DHT22;10075;50.924;4.396;2023-06-22T07:00:05;22.50;99.90
19829;DHT22;10075;50.924;4.396;2023-06-22T07:02:37;22.70;99.90
19829;DHT22;10075;50.924;4.396;2023-06-22T07:05:04;22.90;99.90
19829;DHT22;10075;50.924;4.396;2023-06-22T07:07:32;23.00;99.90
19829;DHT22;10075;50.924;4.396;2023-06-22T07:10:01;23.10;99.90
19829;DHT22;10075;50.924;4.396;2023-06-22T07:12:28;23.30;99.90
19829;DHT22;10075;50.924;4.396;2023-06-22T07:15:01;23.40;99.90
19829;DHT22;10075;50.924;4.396;2023-06-22T07:17:28;23.60;99.90
19829;DHT22;10075;50.924;4.396;2023-06-22T07:19:55;23.70;99.90
19829;DHT22;10075;50.924;4.396;2023-06-22T07:22:22;23.90;99.90
19829;DHT22;10075;50.924;4.396;2023-06-22T07:24:49;24.00;99.90
19829;DHT22;10075;50.924;4.396;2023-06-22T07:27:18;24.10;99.90
19829;DHT22;10075;50.924;4.396;2023-06-22T07:29:45;24.20;99.90
19829;DHT22;10075;50.924;4.396;2023-06-22T07:32:12;24.40;99.90
19829;DHT22;10075;50.924;4.396;2023-06-22T07:34:39;24.60;99.90
19829;DHT22;10075;50.924;4.396;2023-06-22T07:37:07;24.80;99.90
19829;DHT22;10075;50.924;4.396;2023-06-22T07:39:34;24.80;99.90
19829;DHT22;10075;50.924;4.396;2023-06-22T07:42:01;24.90;99.90
19829;DHT22;10075;50.924;4.396;2023-06-22T07:44:29;25.00;99.90
19829;DHT22;10075;50.924;4.396;2023-06-22T07:46:56;24.90;99.90
19829;DHT22;10075;50.924;4.396;2023-06-22T07:49:23;24.90;99.90
19829;DHT22;10075;50.924;4.396;2023-06-22T07:51:50;24.90;99.90
19829;DHT22;10075;50.924;4.396;2023-06-22T07:54:17;24.80;99.90
19829;DHT22;10075;50.924;4.396;2023-06-22T07:56:44;24.70;99.90
19829;DHT22;10075;50.924;4.396;2023-06-22T07:59:12;24.70;99.90
19829;DHT22;10075;50.924;4.396;2023-06-22T08:01:41;24.80;99.90
19829;DHT22;10075;50.924;4.396;2023-06-22T08:04:09;24.70;99.90
19829;DHT22;10075;50.924;4.396;2023-06-22T08:06:36;24.70;99.90
19829;DHT22;10075;50.924;4.396;2023-06-22T08:09:02;24.70;99.90
19829;DHT22;10075;50.924;4.396;2023-06-22T08:11:29;24.60;99.90
19829;DHT22;10075;50.924;4.396;2023-06-22T08:13:56;24.70;99.90
19829;DHT22;10075;50.924;4.396;2023-06-22T08:16:24;24.60;99.90
19829;DHT22;10075;50.924;4.396;2023-06-22T08:18:52;24.50;99.90
19829;DHT22;10075;50.924;4.396;2023-06-22T08:21:20;24.50;99.90
19829;DHT22;10075;50.924;4.396;2023-06-22T08:23:48;24.30;99.90
19829;DHT22;10075;50.924;4.396;2023-06-22T08:26:15;24.30;99.90
19829;DHT22;10075;50.924;4.396;2023-06-22T08:28:42;24.20;99.90
19829;DHT22;10075;50.924;4.396;2023-06-22T08:31:09;24.30;99.90
19829;DHT22;10075;50.924;4.396;2023-06-22T08:33:38;24.20;99.90
19829;DHT22;10075;50.924;4.396;2023-06-22T08:36:07;24.10;99.90
19829;DHT22;10075;50.924;4.396;2023-06-22T08:38:36;24.10;99.90
19829;DHT22;10075;50.924;4.396;2023-06-22T08:41:03;24.10;99.90
19829;DHT22;10075;50.924;4.396;2023-06-22T08:43:30;24.00;99.90
19829;DHT22;10075;50.924;4.396;2023-06-22T08:45:57;23.90;99.90
19829;DHT22;10075;50.924;4.396;2023-06-22T08:48:24;23.90;99.90
19829;DHT22;10075;50.924;4.396;2023-06-22T08:50:51;23.90;99.90
19829;DHT22;10075;50.924;4.396;2023-06-22T08:53:19;23.70;99.90
19829;DHT22;10075;50.924;4.396;2023-06-22T08:55:46;23.60;99.90
19829;DHT22;10075;50.924;4.396;2023-06-22T08:58:13;23.60;99.90
19829;DHT22;10075;50.924;4.396;2023-06-22T09:00:40;23.50;99.90
19829;DHT22;10075;50.924;4.396;2023-06-22T09:03:07;23.40;99.90
19829;DHT22;10075;50.924;4.396;2023-06-22T09:05:34;23.40;99.90
19829;DHT22;10075;50.924;4.396;2023-06-22T09:08:01;23.30;99.90
19829;DHT22;10075;50.924;4.396;2023-06-22T09:10:29;23.30;99.90
19829;DHT22;10075;50.924;4.396;2023-06-22T09:12:57;23.30;99.90
19829;DHT22;10075;50.924;4.396;2023-06-22T09:15:24;23.20;99.90
19829;DHT22;10075;50.924;4.396;2023-06-22T09:17:51;23.20;99.90
19829;DHT22;10075;50.924;4.396;2023-06-22T09:20:20;23.20;99.90
19829;DHT22;10075;50.924;4.396;2023-06-22T09:22:47;23.20;99.90
19829;DHT22;10075;50.924;4.396;2023-06-22T09:25:14;23.20;99.90
19829;DHT22;10075;50.924;4.396;2023-06-22T09:27:43;23.20;99.90
19829;DHT22;10075;50.924;4.396;2023-06-22T09:30:10;23.30;99.90
19829;DHT22;10075;50.924;4.396;2023-06-22T09:32:37;23.30;99.90
19829;DHT22;10075;50.924;4.396;2023-06-22T09:35:06;23.40;99.90
19829;DHT22;10075;50.924;4.396;2023-06-22T09:37:34;23.40;99.90
19829;DHT22;10075;50.924;4.396;2023-06-22T09:40:01;23.40;99.90
19829;DHT22;10075;50.924;4.396;2023-06-22T09:42:32;23.50;99.90
19829;DHT22;10075;50.924;4.396;2023-06-22T09:45:01;23.50;99.90
19829;DHT22;10075;50.924;4.396;2023-06-22T09:47:28;23.50;99.90
19829;DHT22;10075;50.924;4.396;2023-06-22T09:49:55;23.50;99.90
19829;DHT22;10075;50.924;4.396;2023-06-22T09:52:24;23.50;99.90
19829;DHT22;10075;50.924;4.396;2023-06-22T09:54:51;23.60;99.90
19829;DHT22;10075;50.924;4.396;2023-06-22T09:57:19;23.60;99.90
19829;DHT22;10075;50.924;4.396;2023-06-22T09:59:47;23.40;99.90
19829;DHT22;10075;50.924;4.396;2023-06-22T10:02:15;23.40;99.90
19829;DHT22;10075;50.924;4.396;2023-06-22T10:04:42;23.10;99.90
19829;DHT22;10075;50.924;4.396;2023-06-22T10:07:09;22.90;99.90
19829;DHT22;10075;50.924;4.396;2023-06-22T10:09:36;22.80;99.90
19829;DHT22;10075;50.924;4.396;2023-06-22T10:12:04;22.70;99.90
19829;DHT22;10075;50.924;4.396;2023-06-22T10:14:31;22.60;99.90
19829;DHT22;10075;50.924;4.396;2023-06-22T10:16:58;22.40;99.90
19829;DHT22;10075;50.924;4.396;2023-06-22T10:19:26;22.30;99.90
19829;DHT22;10075;50.924;4.396;2023-06-22T10:21:53;22.20;99.90
19829;DHT22;10075;50.924;4.396;2023-06-22T10:24:21;22.10;99.90
19829;DHT22;10075;50.924;4.396;2023-06-22T10:26:47;21.90;99.90
19829;DHT22;10075;50.924;4.396;2023-06-22T10:29:14;21.90;99.90
19829;DHT22;10075;50.924;4.396;2023-06-22T10:31:41;21.70;99.90
19829;DHT22;10075;50.924;4.396;2023-06-22T10:34:08;21.40;99.90
19829;DHT22;10075;50.924;4.396;2023-06-22T10:36:37;21.00;99.90
19829;DHT22;10075;50.924;4.396;2023-06-22T10:39:03;20.80;99.90
19829;DHT22;10075;50.924;4.396;2023-06-22T10:41:31;20.60;99.90
19829;DHT22;10075;50.924;4.396;2023-06-22T10:43:58;20.50;99.90
19829;DHT22;10075;50.924;4.396;2023-06-22T10:46:25;20.40;99.90
19829;DHT22;10075;50.924;4.396;2023-06-22T10:48:53;20.40;99.90
19829;DHT22;10075;50.924;4.396;2023-06-22T10:51:23;20.40;99.90
19829;DHT22;10075;50.924;4.396;2023-06-22T10:53:51;20.40;99.90
19829;DHT22;10075;50.924;4.396;2023-06-22T10:56:18;20.40;99.90
19829;DHT22;10075;50.924;4.396;2023-06-22T10:58:45;20.40;99.90
19829;DHT22;10075;50.924;4.396;2023-06-22T11:01:12;20.30;99.90
19829;DHT22;10075;50.924;4.396;2023-06-22T11:03:39;20.30;99.90
19829;DHT22;10075;50.924;4.396;2023-06-22T11:06:06;20.30;99.90
19829;DHT22;10075;50.924;4.396;2023-06-22T11:08:33;20.20;99.90
19829;DHT22;10075;50.924;4.396;2023-06-22T11:11:02;20.20;99.90
19829;DHT22;10075;50.924;4.396;2023-06-22T11:13:29;20.20;99.90
19829;DHT22;10075;50.924;4.396;2023-06-22T11:15:56;20.10;99.90
19829;DHT22;10075;50.924;4.396;2023-06-22T11:18:23;20.10;99.90
19829;DHT22;10075;50.924;4.396;2023-06-22T11:20:50;20.00;99.90
19829;DHT22;10075;50.924;4.396;2023-06-22T11:23:17;20.00;99.90
19829;DHT22;10075;50.924;4.396;2023-06-22T11:25:45;20.00;99.90
19829;DHT22;10075;50.924;4.396;2023-06-22T11:28:13;20.00;99.90
19829;DHT22;10075;50.924;4.396;2023-06-22T11:30:40;20.00;99.90
19829;DHT22;10075;50.924;4.396;2023-06-22T11:33:07;20.00;99.90
19829;DHT22;10075;50.924;4.396;2023-06-22T11:35:34;20.00;99.90
19829;DHT22;10075;50.924;4.396;2023-06-22T11:38:01;20.00;99.90
19829;DHT22;10075;50.924;4.396;2023-06-22T11:40:30;19.90;99.90
19829;DHT22;10075;50.924;4.396;2023-06-22T11:42:57;20.00;99.90
19829;DHT22;10075;50.924;4.396;2023-06-22T11:45:26;20.00;99.90
19829;DHT22;10075;50.924;4.396;2023-06-22T11:47:53;20.00;99.90
19829;DHT22;10075;50.924;4.396;2023-06-22T11:50:20;20.00;99.90
19829;DHT22;10075;50.924;4.396;2023-06-22T11:52:47;20.00;99.90
19829;DHT22;10075;50.924;4.396;2023-06-22T11:55:15;20.00;99.90
19829;DHT22;10075;50.924;4.396;2023-06-22T11:57:53;20.00;99.90
19829;DHT22;10075;50.924;4.396;2023-06-22T12:00:21;19.90;99.90
19829;DHT22;10075;50.924;4.396;2023-06-22T12:02:51;19.90;99.90
19829;DHT22;10075;50.924;4.396;2023-06-22T12:05:19;20.00;99.90
19829;DHT22;10075;50.924;4.396;2023-06-22T12:07:47;20.00;99.90
19829;DHT22;10075;50.924;4.396;2023-06-22T12:10:14;20.00;99.90
19829;DHT22;10075;50.924;4.396;2023-06-22T12:12:41;20.00;99.90
19829;DHT22;10075;50.924;4.396;2023-06-22T12:15:09;20.00;99.90
19829;DHT22;10075;50.924;4.396;2023-06-22T12:17:37;20.00;99.90
19829;DHT22;10075;50.924;4.396;2023-06-22T12:20:07;20.00;99.90
19829;DHT22;10075;50.924;4.396;2023-06-22T12:22:34;20.00;99.90
19829;DHT22;10075;50.924;4.396;2023-06-22T12:25:03;20.00;99.90
19829;DHT22;10075;50.924;4.396;2023-06-22T12:27:30;20.00;99.90
19829;DHT22;10075;50.924;4.396;2023-06-22T12:29:57;20.00;99.90
19829;DHT22;10075;50.924;4.396;2023-06-22T12:32:24;20.00;99.90
19829;DHT22;10075;50.924;4.396;2023-06-22T12:34:52;20.00;99.90
19829;DHT22;10075;50.924;4.396;2023-06-22T12:37:21;20.00;99.90
19829;DHT22;10075;50.924;4.396;2023-06-22T12:39:48;20.00;99.90
19829;DHT22;10075;50.924;4.396;2023-06-22T12:42:15;20.00;99.90
19829;DHT22;10075;50.924;4.396;2023-06-22T12:44:42;20.00;99.90
19829;DHT22;10075;50.924;4.396;2023-06-22T12:47:10;20.10;99.90
19829;DHT22;10075;50.924;4.396;2023-06-22T12:49:37;20.00;99.90
19829;DHT22;10075;50.924;4.396;2023-06-22T12:52:09;20.00;99.90
19829;DHT22;10075;50.924;4.396;2023-06-22T12:54:37;20.00;99.90
19829;DHT22;10075;50.924;4.396;2023-06-22T12:57:05;20.00;99.90
19829;DHT22;10075;50.924;4.396;2023-06-22T12:59:32;19.90;99.90
19829;DHT22;10075;50.924;4.396;2023-06-22T13:01:59;19.90;99.90
19829;DHT22;10075;50.924;4.396;2023-06-22T13:04:26;19.90;99.90
19829;DHT22;10075;50.924;4.396;2023-06-22T13:06:53;19.90;99.90
19829;DHT22;10075;50.924;4.396;2023-06-22T13:09:20;19.80;99.90
19829;DHT22;10075;50.924;4.396;2023-06-22T13:11:49;19.80;99.90
19829;DHT22;10075;50.924;4.396;2023-06-22T13:14:18;19.80;99.90
19829;DHT22;10075;50.924;4.396;2023-06-22T13:16:45;19.70;99.90
19829;DHT22;10075;50.924;4.396;2023-06-22T13:19:12;19.70;99.90
19829;DHT22;10075;50.924;4.396;2023-06-22T13:21:40;19.60;99.90
19829;DHT22;10075;50.924;4.396;2023-06-22T13:24:07;19.50;99.90
19829;DHT22;10075;50.924;4.396;2023-06-22T13:26:34;19.40;99.90
19829;DHT22;10075;50.924;4.396;2023-06-22T13:29:02;19.40;99.90
19829;DHT22;10075;50.924;4.396;2023-06-22T13:31:29;19.40;99.90
19829;DHT22;10075;50.924;4.396;2023-06-22T13:33:56;19.30;99.90
19829;DHT22;10075;50.924;4.396;2023-06-22T13:36:23;19.30;99.90
19829;DHT22;10075;50.924;4.396;2023-06-22T13:38:50;19.30;99.90
19829;DHT22;10075;50.924;4.396;2023-06-22T13:41:17;19.20;99.90
19829;DHT22;10075;50.924;4.396;2023-06-22T13:43:44;19.20;99.90
19829;DHT22;10075;50.924;4.396;2023-06-22T13:46:13;19.20;99.90
19829;DHT22;10075;50.924;4.396;2023-06-22T13:48:39;19.20;99.90
19829;DHT22;10075;50.924;4.396;2023-06-22T13:51:06;19.20;99.90
19829;DHT22;10075;50.924;4.396;2023-06-22T13:53:33;19.10;99.90
19829;DHT22;10075;50.924;4.396;2023-06-22T13:56:00;19.10;99.90
19829;DHT22;10075;50.924;4.396;2023-06-22T13:58:27;19.00;99.90
19829;DHT22;10075;50.924;4.396;2023-06-22T14:00:54;19.00;99.90
19829;DHT22;10075;50.924;4.396;2023-06-22T14:03:23;19.10;99.90
19829;DHT22;10075;50.924;4.396;2023-06-22T14:05:50;19.10;99.90
19829;DHT22;10075;50.924;4.396;2023-06-22T14:08:19;19.10;99.90
19829;DHT22;10075;50.924;4.396;2023-06-22T14:10:49;19.00;99.90
19829;DHT22;10075;50.924;4.396;2023-06-22T14:13:16;19.10;99.90
19829;DHT22;10075;50.924;4.396;2023-06-22T14:15:43;19.10;99.90
19829;DHT22;10075;50.924;4.396;2023-06-22T14:18:13;19.10;99.90
19829;DHT22;10075;50.924;4.396;2023-06-22T14:20:42;19.20;99.90
19829;DHT22;10075;50.924;4.396;2023-06-22T14:23:09;19.10;99.90
19829;DHT22;10075;50.924;4.396;2023-06-22T14:25:36;19.20;99.90
19829;DHT22;10075;50.924;4.396;2023-06-22T14:28:04;19.10;99.90
19829;DHT22;10075;50.924;4.396;2023-06-22T14:30:31;19.00;99.90
19829;DHT22;10075;50.924;4.396;2023-06-22T14:32:57;19.00;99.90
19829;DHT22;10075;50.924;4.396;2023-06-22T14:35:24;19.00;99.90
19829;DHT22;10075;50.924;4.396;2023-06-22T14:37:53;19.10;99.90
19829;DHT22;10075;50.924;4.396;2023-06-22T14:40:20;19.10;99.90
19829;DHT22;10075;50.924;4.396;2023-06-22T14:42:47;19.10;99.90
19829;DHT22;10075;50.924;4.396;2023-06-22T14:45:14;19.20;99.90
19829;DHT22;10075;50.924;4.396;2023-06-22T14:47:41;19.20;99.90
19829;DHT22;10075;50.924;4.396;2023-06-22T14:50:08;19.20;99.90
19829;DHT22;10075;50.924;4.396;2023-06-22T14:52:35;19.20;99.90
19829;DHT22;10075;50.924;4.396;2023-06-22T14:55:04;19.30;99.90
19829;DHT22;10075;50.924;4.396;2023-06-22T14:57:31;19.40;99.90
19829;DHT22;10075;50.924;4.396;2023-06-22T14:59:58;19.40;99.90
19829;DHT22;10075;50.924;4.396;2023-06-22T15:02:27;19.40;99.90
19829;DHT22;10075;50.924;4.396;2023-06-22T15:04:54;19.50;99.90
19829;DHT22;10075;50.924;4.396;2023-06-22T15:07:21;19.60;99.90
19829;DHT22;10075;50.924;4.396;2023-06-22T15:09:48;19.70;99.90
19829;DHT22;10075;50.924;4.396;2023-06-22T15:12:17;19.70;99.90
19829;DHT22;10075;50.924;4.396;2023-06-22T15:14:43;19.70;99.90
19829;DHT22;10075;50.924;4.396;2023-06-22T15:17:10;19.80;99.90
19829;DHT22;10075;50.924;4.396;2023-06-22T15:19:40;19.80;99.90
19829;DHT22;10075;50.924;4.396;2023-06-22T15:22:07;19.80;99.90
19829;DHT22;10075;50.924;4.396;2023-06-22T15:24:34;19.80;99.90
19829;DHT22;10075;50.924;4.396;2023-06-22T15:27:02;19.80;99.90
19829;DHT22;10075;50.924;4.396;2023-06-22T15:29:30;19.80;99.90
19829;DHT22;10075;50.924;4.396;2023-06-22T15:31:59;19.70;99.90
19829;DHT22;10075;50.924;4.396;2023-06-22T15:34:26;19.80;99.90